Terminal Aerodrome Forecast
Issued by NWS Missoula, MT

Home | Current Version | Previous Version | Text Only | Print | Product List | Glossary On
Versions: 1 2 3 4 5 6 7 8 9 10 11 12 13 14
011
FTUS45 KMSO 200520
TAFBTM
TAF
KBTM 200520Z 2006/2106 32004KT P6SM SCT100
     FM201200 21011KT P6SM VCSH BKN060
     FM201500 22007KT 5SM -SN BR OVC030
     FM201800 24008KT 5SM -RA BR OVC020
     FM210100 24010KT P6SM VCSH OVC045=

USA.gov is the U.S. government's official web portal to all federal, state and local government web resources and services.